createdAt,value
2022-10-18T00:01:32.538Z,14.28
2022-10-18T00:03:39.949Z,14.39
2022-10-18T00:05:51.891Z,14.30
2022-10-18T00:07:55.268Z,14.27
2022-10-18T00:10:01.174Z,14.03
2022-10-18T00:12:05.057Z,13.91
2022-10-18T00:14:07.684Z,13.83
2022-10-18T00:16:18.319Z,13.68
2022-10-18T00:18:28.061Z,13.68
2022-10-18T00:20:31.598Z,13.66
2022-10-18T00:22:40.914Z,13.62
2022-10-18T00:24:44.152Z,13.56
2022-10-18T00:26:52.181Z,13.59
2022-10-18T00:29:02.623Z,13.64
2022-10-18T00:31:16.424Z,13.70
2022-10-18T00:33:25.620Z,13.58
2022-10-18T00:35:27.718Z,13.65
2022-10-18T00:37:30.104Z,13.57
2022-10-18T00:39:35.262Z,13.32
2022-10-18T00:41:38.317Z,13.23
2022-10-18T00:44:03.536Z,13.29
2022-10-18T00:46:05.466Z,13.21
2022-10-18T00:48:09.840Z,13.12
2022-10-18T00:50:13.679Z,13.09
2022-10-18T00:52:22.550Z,13.19
2022-10-18T00:54:30.126Z,13.28
2022-10-18T00:56:34.406Z,13.34
2022-10-18T00:58:36.594Z,13.33
2022-10-18T01:00:45.615Z,13.30
2022-10-18T01:02:47.952Z,13.32
2022-10-18T01:04:55.555Z,13.30
2022-10-18T01:07:19.251Z,13.26
2022-10-18T01:09:36.916Z,13.21
2022-10-18T01:12:01.506Z,13.21
2022-10-18T01:14:28.929Z,13.29
2022-10-18T01:17:03.074Z,13.37
2022-10-18T01:19:14.588Z,13.34
2022-10-18T01:21:28.512Z,13.34
2022-10-18T01:23:57.255Z,13.44
2022-10-18T01:26:19.509Z,13.51
2022-10-18T01:28:54.413Z,13.38
2022-10-18T01:31:08.507Z,13.37
2022-10-18T01:33:27.874Z,13.49
2022-10-18T01:35:41.123Z,13.49
2022-10-18T01:37:48.598Z,13.52
2022-10-18T01:39:56.740Z,13.57
2022-10-18T01:42:02.091Z,13.48
2022-10-18T01:44:09.753Z,13.50
2022-10-18T01:46:15.351Z,13.62
2022-10-18T01:48:20.498Z,13.60
2022-10-18T01:50:35.352Z,13.63
2022-10-18T01:52:48.264Z,13.62
2022-10-18T01:54:56.478Z,13.64
2022-10-18T01:57:33.322Z,13.72
2022-10-18T02:00:04.297Z,13.86
2022-10-18T02:02:24.617Z,13.99
2022-10-18T02:05:01.577Z,13.90
2022-10-18T02:07:16.822Z,13.87
2022-10-18T02:09:24.578Z,13.85
2022-10-18T02:11:29.693Z,13.93
2022-10-18T02:13:58.043Z,13.89
2022-10-18T02:16:05.054Z,13.81
2022-10-18T02:18:11.779Z,13.74
2022-10-18T02:20:18.003Z,13.69
2022-10-18T02:22:28.292Z,13.72
2022-10-18T02:24:37.069Z,13.71
2022-10-18T02:26:41.069Z,13.68
2022-10-18T02:28:44.007Z,13.65
2022-10-18T02:31:27.309Z,13.78
2022-10-18T02:33:37.022Z,13.66
2022-10-18T02:35:50.181Z,13.59
2022-10-18T02:37:55.462Z,13.65
2022-10-18T02:39:57.689Z,13.69
2022-10-18T02:42:00.123Z,13.60
2022-10-18T02:44:02.072Z,13.67
2022-10-18T02:46:04.372Z,13.65
2022-10-18T02:48:11.412Z,13.63
2022-10-18T02:50:16.439Z,13.61
2022-10-18T02:52:18.250Z,13.62
2022-10-18T02:54:25.392Z,13.57
2022-10-18T02:56:27.294Z,13.57
2022-10-18T02:58:29.518Z,13.54
2022-10-18T03:00:31.461Z,13.60
2022-10-18T03:02:39.138Z,13.46
2022-10-18T03:04:41.099Z,13.42
2022-10-18T03:06:43.002Z,13.52
2022-10-18T03:08:45.109Z,13.52
2022-10-18T03:10:47.410Z,13.42
2022-10-18T03:12:50.218Z,13.33
2022-10-18T03:14:53.049Z,13.44
2022-10-18T03:16:54.973Z,13.55
2022-10-18T03:18:57.909Z,13.52
2022-10-18T03:20:59.856Z,13.46
2022-10-18T03:23:03.555Z,13.59
2022-10-18T03:25:05.789Z,13.70
2022-10-18T03:27:07.681Z,13.58
2022-10-18T03:29:11.748Z,13.63
2022-10-18T03:31:13.821Z,13.61
2022-10-18T03:33:15.675Z,13.60
2022-10-18T03:35:17.552Z,13.58
2022-10-18T03:37:19.378Z,13.52
2022-10-18T03:39:22.339Z,13.44
2022-10-18T03:41:26.231Z,13.48
2022-10-18T03:43:28.138Z,13.47
2022-10-18T03:45:41.274Z,13.41
2022-10-18T03:47:43.080Z,13.34
2022-10-18T03:49:46.005Z,13.30
2022-10-18T03:51:49.828Z,13.34
2022-10-18T03:53:51.749Z,13.15
2022-10-18T03:55:56.919Z,13.15
2022-10-18T03:58:00.865Z,13.14
2022-10-18T04:00:10.217Z,13.05
2022-10-18T04:02:17.848Z,13.10
2022-10-18T04:04:25.893Z,13.04
2022-10-18T04:06:28.809Z,13.01
2022-10-18T04:08:30.767Z,12.90
2022-10-18T04:10:33.777Z,13.03
2022-10-18T04:12:35.731Z,12.97
2022-10-18T04:14:38.772Z,13.05
2022-10-18T04:16:40.722Z,13.18
2022-10-18T04:18:43.124Z,12.97
2022-10-18T04:20:45.055Z,12.93
2022-10-18T04:22:48.386Z,13.02
2022-10-18T04:24:53.488Z,13.06
2022-10-18T04:26:55.405Z,13.07
2022-10-18T04:28:58.357Z,12.98
2022-10-18T04:31:00.334Z,13.10
2022-10-18T04:33:02.258Z,13.07
2022-10-18T04:35:05.164Z,13.06
2022-10-18T04:37:07.053Z,13.12
2022-10-18T04:39:08.989Z,13.12
2022-10-18T04:41:11.885Z,13.13
2022-10-18T04:43:13.979Z,13.22
2022-10-18T04:45:17.050Z,13.01
2022-10-18T04:47:20.271Z,12.99
2022-10-18T04:49:23.258Z,12.95
2022-10-18T04:51:28.717Z,12.99
2022-10-18T04:53:31.674Z,12.95
2022-10-18T04:55:33.596Z,13.03
2022-10-18T04:57:36.526Z,13.07
2022-10-18T04:59:38.626Z,12.98
2022-10-18T05:01:42.630Z,12.87
2022-10-18T05:03:45.596Z,12.83
2022-10-18T05:06:01.244Z,12.95
2022-10-18T05:08:05.775Z,12.98
2022-10-18T05:10:09.229Z,12.97
2022-10-18T05:12:13.222Z,12.93
2022-10-18T05:14:16.292Z,12.79
2022-10-18T05:16:24.146Z,12.86
2022-10-18T05:18:28.245Z,12.94
2022-10-18T05:20:30.331Z,12.77
2022-10-18T05:22:32.500Z,12.81
2022-10-18T05:24:34.750Z,12.85
2022-10-18T05:26:42.793Z,12.84
2022-10-18T05:28:46.720Z,12.89
2022-10-18T05:30:49.670Z,12.92
2022-10-18T05:32:53.750Z,12.90
2022-10-18T05:34:55.980Z,12.96
2022-10-18T05:36:58.794Z,12.92
2022-10-18T05:39:05.518Z,12.95
2022-10-18T05:41:07.671Z,12.98
2022-10-18T05:43:10.650Z,12.93
2022-10-18T05:45:17.480Z,12.91
2022-10-18T05:47:19.360Z,13.05
2022-10-18T05:49:21.410Z,13.02
2022-10-18T05:51:23.352Z,13.04
2022-10-18T05:53:36.229Z,13.15
2022-10-18T05:55:43.336Z,13.09
2022-10-18T05:57:50.577Z,13.16
2022-10-18T05:59:54.446Z,13.22
2022-10-18T06:01:58.506Z,13.29
2022-10-18T06:04:01.714Z,13.37
2022-10-18T06:06:19.440Z,13.42
2022-10-18T06:08:21.682Z,13.52
2022-10-18T06:10:26.190Z,13.58
2022-10-18T06:12:28.184Z,13.64
2022-10-18T06:14:30.116Z,13.65
2022-10-18T06:16:34.196Z,13.67
2022-10-18T06:18:36.720Z,13.67
2022-10-18T06:20:59.135Z,13.76
2022-10-18T06:23:19.056Z,13.78
2022-10-18T06:25:22.040Z,13.75
2022-10-18T06:27:38.042Z,13.81
2022-10-18T06:29:41.705Z,13.81
2022-10-18T06:31:53.778Z,13.84
2022-10-18T06:34:05.542Z,13.82
2022-10-18T06:36:15.623Z,13.79
2022-10-18T06:38:23.867Z,13.86
2022-10-18T06:40:31.124Z,13.80
2022-10-18T06:42:35.282Z,13.86
2022-10-18T06:44:38.598Z,13.90
2022-10-18T06:46:41.941Z,13.96
2022-10-18T06:48:47.916Z,13.98
2022-10-18T06:51:00.703Z,14.03
2022-10-18T06:53:04.328Z,14.11
2022-10-18T06:55:09.254Z,14.18
2022-10-18T06:57:11.121Z,14.22
2022-10-18T06:59:13.045Z,14.30
2022-10-18T07:01:17.129Z,14.35
2022-10-18T07:03:19.022Z,14.37
2022-10-18T07:05:20.928Z,14.39
2022-10-18T07:07:22.961Z,14.41
2022-10-18T07:09:32.616Z,14.52
2022-10-18T07:11:36.651Z,14.66
2022-10-18T07:13:38.537Z,14.77
2022-10-18T07:15:42.598Z,14.79
2022-10-18T07:17:49.363Z,14.78
2022-10-18T07:19:56.724Z,14.76
2022-10-18T07:22:06.542Z,14.78
2022-10-18T07:24:08.533Z,14.73
2022-10-18T07:26:42.787Z,14.72
2022-10-18T07:28:51.151Z,14.77
2022-10-18T07:30:54.946Z,14.80
2022-10-18T07:32:56.863Z,14.86
2022-10-18T07:35:06.290Z,14.93
2022-10-18T07:37:08.343Z,15.04
2022-10-18T07:39:17.398Z,15.21
2022-10-18T07:41:21.902Z,15.25
2022-10-18T07:43:47.183Z,15.38
2022-10-18T07:45:55.569Z,15.58
2022-10-18T07:48:00.920Z,15.74
2022-10-18T07:50:02.956Z,15.75
2022-10-18T07:52:05.127Z,15.68
2022-10-18T07:54:09.546Z,15.66
2022-10-18T07:56:21.159Z,15.89
2022-10-18T07:58:23.435Z,15.90
2022-10-18T08:00:25.569Z,15.98
2022-10-18T08:02:27.606Z,16.09
2022-10-18T08:04:29.616Z,15.91
2022-10-18T08:06:31.723Z,15.73
2022-10-18T08:08:33.619Z,15.67
2022-10-18T08:10:36.478Z,15.63
2022-10-18T08:12:39.496Z,15.71
2022-10-18T08:14:41.588Z,15.76
2022-10-18T08:16:43.786Z,15.86
2022-10-18T08:18:47.529Z,15.97
2022-10-18T08:20:49.478Z,16.24
2022-10-18T08:22:55.445Z,16.26
2022-10-18T08:24:59.716Z,16.13
2022-10-18T08:27:01.734Z,16.40
2022-10-18T08:29:20.975Z,16.64
2022-10-18T08:31:23.930Z,16.88
2022-10-18T08:33:25.846Z,17.07
2022-10-18T08:35:27.955Z,17.37
2022-10-18T08:37:30.346Z,17.53
2022-10-18T08:39:32.576Z,17.74
2022-10-18T08:41:37.339Z,17.93
2022-10-18T08:43:47.428Z,17.91
2022-10-18T08:45:54.514Z,17.97
2022-10-18T08:47:58.109Z,18.62
2022-10-18T08:50:04.694Z,18.58
2022-10-18T08:52:19.468Z,18.45
2022-10-18T08:54:37.901Z,18.71
2022-10-18T08:56:43.332Z,18.50
2022-10-18T08:58:45.404Z,18.70
2022-10-18T09:01:26.072Z,18.65
2022-10-18T09:03:33.729Z,18.54
2022-10-18T09:06:10.488Z,18.60
2022-10-18T09:08:39.990Z,18.62
2022-10-18T09:11:07.970Z,18.63
2022-10-18T09:13:57.277Z,18.70
2022-10-18T09:16:01.358Z,18.69
2022-10-18T09:18:15.031Z,19.02
2022-10-18T09:20:22.921Z,18.64
2022-10-18T09:22:53.230Z,18.81
2022-10-18T09:25:15.109Z,18.93
2022-10-18T09:27:20.468Z,18.93
2022-10-18T09:29:48.879Z,18.95
2022-10-18T09:32:01.585Z,18.74
2022-10-18T09:34:11.931Z,18.74
2022-10-18T09:36:21.998Z,18.41
2022-10-18T09:38:31.171Z,18.39
2022-10-18T09:40:39.125Z,18.87
2022-10-18T09:43:04.430Z,18.87
2022-10-18T09:45:24.528Z,19.29
2022-10-18T09:47:39.620Z,19.43
2022-10-18T09:50:03.058Z,19.38
2022-10-18T09:52:14.128Z,19.15
2022-10-18T09:54:36.167Z,19.31
2022-10-18T09:57:14.173Z,19.40
2022-10-18T09:59:39.198Z,19.36
2022-10-18T10:01:41.204Z,19.44
2022-10-18T10:03:43.286Z,20.10
2022-10-18T10:05:45.428Z,20.30
2022-10-18T10:07:48.996Z,20.23
2022-10-18T10:10:08.535Z,20.39
2022-10-18T10:12:35.300Z,20.03
2022-10-18T10:14:44.288Z,20.03
2022-10-18T10:16:58.548Z,20.20
2022-10-18T10:19:00.510Z,20.34
2022-10-18T10:21:06.120Z,20.53
2022-10-18T10:23:19.791Z,20.13
2022-10-18T10:25:29.264Z,19.99
2022-10-18T10:27:41.186Z,20.16
2022-10-18T10:29:51.678Z,19.75
2022-10-18T10:32:04.469Z,19.47
2022-10-18T10:34:15.087Z,19.46
2022-10-18T10:36:19.683Z,19.30
2022-10-18T10:38:32.544Z,19.69
2022-10-18T10:40:40.639Z,19.79
2022-10-18T10:43:08.850Z,19.46
2022-10-18T10:45:23.937Z,19.40
2022-10-18T10:47:32.794Z,19.19
2022-10-18T10:49:46.378Z,19.52
2022-10-18T10:52:08.247Z,19.76
2022-10-18T10:54:17.305Z,19.71
2022-10-18T10:56:28.083Z,19.61
2022-10-18T10:58:36.266Z,19.86
2022-10-18T11:00:46.141Z,19.86
2022-10-18T11:02:59.291Z,19.71
2022-10-18T11:05:28.798Z,19.47
2022-10-18T11:07:39.816Z,19.54
2022-10-18T11:09:55.034Z,19.65
2022-10-18T11:12:13.870Z,19.44
2022-10-18T11:14:27.226Z,19.19
2022-10-18T11:16:55.336Z,19.15
2022-10-18T11:18:59.049Z,19.16
2022-10-18T11:21:08.279Z,19.13
2022-10-18T11:23:16.208Z,19.24
2022-10-18T11:25:18.424Z,19.13
2022-10-18T11:27:29.461Z,18.87
2022-10-18T11:29:37.141Z,18.63
2022-10-18T11:31:55.432Z,18.61
2022-10-18T11:34:40.392Z,18.66
2022-10-18T11:37:31.065Z,18.63
2022-10-18T11:39:36.629Z,18.58
2022-10-18T11:41:44.527Z,18.54
2022-10-18T11:44:02.782Z,18.58
2022-10-18T11:46:22.344Z,18.66
2022-10-18T11:48:58.056Z,18.82
2022-10-18T11:51:56.311Z,18.80
2022-10-18T11:54:31.129Z,18.91
2022-10-18T11:56:48.317Z,18.69
2022-10-18T11:59:14.358Z,18.58
2022-10-18T12:01:35.937Z,18.51
2022-10-18T12:03:58.919Z,18.56
2022-10-18T12:06:06.785Z,18.59
2022-10-18T12:08:34.796Z,18.61
2022-10-18T12:10:52.521Z,18.57
2022-10-18T12:13:02.367Z,18.69
2022-10-18T12:15:14.614Z,18.64
2022-10-18T12:17:42.862Z,18.64
2022-10-18T12:19:52.286Z,18.63
2022-10-18T12:21:57.814Z,18.57
2022-10-18T12:24:20.290Z,18.56
2022-10-18T12:26:23.104Z,18.49
2022-10-18T12:28:34.073Z,18.51
2022-10-18T12:31:08.256Z,18.65
2022-10-18T12:33:27.782Z,18.67
2022-10-18T12:35:35.426Z,18.65
2022-10-18T12:37:54.535Z,18.63
2022-10-18T12:40:15.771Z,18.54
2022-10-18T12:42:31.496Z,18.54
2022-10-18T12:44:35.388Z,18.52
2022-10-18T12:47:05.604Z,18.43
2022-10-18T12:49:13.010Z,18.45
2022-10-18T12:51:20.744Z,18.40
2022-10-18T12:53:28.199Z,18.40
2022-10-18T12:55:33.878Z,18.30
2022-10-18T12:57:54.137Z,18.25
2022-10-18T12:59:56.149Z,18.16
2022-10-18T13:02:00.641Z,18.12
2022-10-18T13:04:02.793Z,18.10
2022-10-18T13:06:06.789Z,18.07
2022-10-18T13:08:27.863Z,18.05
2022-10-18T13:10:35.474Z,18.00
2022-10-18T13:13:13.229Z,18.01
2022-10-18T13:15:37.780Z,17.99
2022-10-18T13:17:42.800Z,18.02
2022-10-18T13:20:25.564Z,18.01
2022-10-18T13:22:44.113Z,17.97
2022-10-18T13:25:25.008Z,18.03
2022-10-18T13:27:45.612Z,18.00
2022-10-18T13:30:00.702Z,18.02
2022-10-18T13:32:07.834Z,18.02
2022-10-18T13:34:23.058Z,18.00
2022-10-18T13:36:26.504Z,17.91
2022-10-18T13:38:46.684Z,17.89
2022-10-18T13:41:05.233Z,17.87
2022-10-18T13:43:48.933Z,17.85
2022-10-18T13:45:56.162Z,17.86
2022-10-18T13:48:27.868Z,17.88
2022-10-18T13:50:38.467Z,17.90
2022-10-18T13:53:15.625Z,17.96
2022-10-18T13:55:39.599Z,17.99
2022-10-18T13:57:45.944Z,18.00
2022-10-18T14:00:24.406Z,17.98
2022-10-18T14:03:31.996Z,17.87
2022-10-18T14:06:06.715Z,17.84
2022-10-18T14:08:17.701Z,17.79
2022-10-18T14:11:04.188Z,17.78
2022-10-18T14:13:14.511Z,17.70
2022-10-18T14:15:24.992Z,17.65
2022-10-18T14:17:49.587Z,17.63
2022-10-18T14:19:58.650Z,17.65
2022-10-18T14:22:11.912Z,17.63
2022-10-18T14:24:22.578Z,17.62
2022-10-18T14:26:28.853Z,17.59
2022-10-18T14:28:58.491Z,17.58
2022-10-18T14:31:12.100Z,17.49
2022-10-18T14:33:46.052Z,17.49
2022-10-18T14:36:00.066Z,17.45
2022-10-18T14:38:03.977Z,17.39
2022-10-18T14:40:06.194Z,17.35
2022-10-18T14:42:21.328Z,17.27
2022-10-18T14:44:28.998Z,17.21
2022-10-18T14:46:33.070Z,17.18
2022-10-18T14:48:35.026Z,17.00
2022-10-18T14:50:38.095Z,16.80
2022-10-18T14:52:41.102Z,16.63
2022-10-18T14:54:48.929Z,16.54
2022-10-18T14:56:51.969Z,16.45
2022-10-18T14:58:57.488Z,16.38
2022-10-18T15:00:59.721Z,16.29
2022-10-18T15:03:04.326Z,16.24
2022-10-18T15:05:25.181Z,16.23
2022-10-18T15:07:31.458Z,16.16
2022-10-18T15:09:36.744Z,16.10
2022-10-18T15:11:41.810Z,16.09
2022-10-18T15:13:54.338Z,16.04
2022-10-18T15:15:56.826Z,15.99
2022-10-18T15:17:59.940Z,15.94
2022-10-18T15:20:26.427Z,15.82
2022-10-18T15:22:32.080Z,15.79
2022-10-18T15:24:37.936Z,15.71
2022-10-18T15:26:46.828Z,15.61
2022-10-18T15:28:54.046Z,15.53
2022-10-18T15:31:02.236Z,15.43
2022-10-18T15:33:09.986Z,15.37
2022-10-18T15:35:23.484Z,15.27
2022-10-18T15:37:30.815Z,15.18
2022-10-18T15:39:42.814Z,15.10
2022-10-18T15:42:02.222Z,15.03
2022-10-18T15:44:23.870Z,14.92
2022-10-18T15:46:32.394Z,14.89
2022-10-18T15:48:39.878Z,14.82
2022-10-18T15:50:48.179Z,14.72
2022-10-18T15:52:50.116Z,14.66
2022-10-18T15:54:55.250Z,14.55
2022-10-18T15:56:58.552Z,14.43
2022-10-18T15:59:12.808Z,14.29
2022-10-18T16:01:20.522Z,14.11
2022-10-18T16:03:24.364Z,14.04
2022-10-18T16:05:27.432Z,13.96
2022-10-18T16:07:29.385Z,13.90
2022-10-18T16:09:31.328Z,13.82
2022-10-18T16:11:33.348Z,13.77
2022-10-18T16:13:35.283Z,13.70
2022-10-18T16:15:37.203Z,13.67
2022-10-18T16:17:39.161Z,13.65
2022-10-18T16:19:41.073Z,13.63
2022-10-18T16:21:42.974Z,13.61
2022-10-18T16:23:45.086Z,13.60
2022-10-18T16:25:47.185Z,13.57
2022-10-18T16:27:51.080Z,13.54
2022-10-18T16:29:52.934Z,13.54
2022-10-18T16:31:58.347Z,13.53
2022-10-18T16:34:00.902Z,13.50
2022-10-18T16:36:04.987Z,13.47
2022-10-18T16:38:24.648Z,13.49
2022-10-18T16:40:26.920Z,13.48
2022-10-18T16:42:28.855Z,13.49
2022-10-18T16:44:30.786Z,13.45
2022-10-18T16:46:34.868Z,13.50
2022-10-18T16:48:36.783Z,13.53
2022-10-18T16:50:38.677Z,13.50
2022-10-18T16:52:40.596Z,13.47
2022-10-18T16:54:42.582Z,13.46
2022-10-18T16:56:44.840Z,13.47
2022-10-18T16:58:47.074Z,13.48
2022-10-18T17:00:49.864Z,13.46
2022-10-18T17:02:52.060Z,13.46
2022-10-18T17:04:53.979Z,13.47
2022-10-18T17:06:57.746Z,13.44
2022-10-18T17:09:00.254Z,13.44
2022-10-18T17:11:02.580Z,13.44
2022-10-18T17:13:06.797Z,13.48
2022-10-18T17:15:09.505Z,13.45
2022-10-18T17:17:13.515Z,13.47
2022-10-18T17:19:16.071Z,13.44
2022-10-18T17:21:19.992Z,13.40
2022-10-18T17:23:22.467Z,13.37
2022-10-18T17:25:24.999Z,13.36
2022-10-18T17:27:27.650Z,13.28
2022-10-18T17:29:29.978Z,13.18
2022-10-18T17:31:33.290Z,13.10
2022-10-18T17:33:36.114Z,13.05
2022-10-18T17:35:39.491Z,13.01
2022-10-18T17:37:45.313Z,12.97
2022-10-18T17:39:48.538Z,12.98
2022-10-18T17:41:51.365Z,12.89
2022-10-18T17:43:54.011Z,12.84
2022-10-18T17:45:56.902Z,12.81
2022-10-18T17:47:59.150Z,12.79
2022-10-18T17:50:01.227Z,12.81
2022-10-18T17:52:06.902Z,12.78
2022-10-18T17:54:10.146Z,12.74
2022-10-18T17:56:13.729Z,12.68
2022-10-18T17:58:15.760Z,12.66
2022-10-18T18:00:18.664Z,12.65
2022-10-18T18:02:21.379Z,12.65
2022-10-18T18:04:24.648Z,12.60
2022-10-18T18:06:33.979Z,12.59
2022-10-18T18:08:38.025Z,12.55
2022-10-18T18:10:42.019Z,12.53
2022-10-18T18:12:46.040Z,12.50
2022-10-18T18:14:48.506Z,12.50
2022-10-18T18:16:51.579Z,12.48
2022-10-18T18:18:56.493Z,12.50
2022-10-18T18:20:58.896Z,12.45
2022-10-18T18:23:03.418Z,12.42
2022-10-18T18:25:06.326Z,12.43
2022-10-18T18:27:08.726Z,12.45
2022-10-18T18:29:13.371Z,12.38
2022-10-18T18:31:24.209Z,12.34
2022-10-18T18:33:26.843Z,12.32
2022-10-18T18:35:30.734Z,12.30
2022-10-18T18:37:33.290Z,12.29
2022-10-18T18:39:36.788Z,12.29
2022-10-18T18:41:39.057Z,12.27
2022-10-18T18:43:47.390Z,12.27
2022-10-18T18:45:53.807Z,12.25
2022-10-18T18:47:56.243Z,12.23
2022-10-18T18:49:58.556Z,12.20
2022-10-18T18:52:00.996Z,12.23
2022-10-18T18:54:03.969Z,12.21
2022-10-18T18:56:11.484Z,12.21
2022-10-18T18:58:14.490Z,12.21
2022-10-18T19:00:18.204Z,12.20
2022-10-18T19:02:20.701Z,12.24
2022-10-18T19:04:23.060Z,12.25
2022-10-18T19:06:32.018Z,12.27
2022-10-18T19:08:39.178Z,12.28
2022-10-18T19:10:42.047Z,12.30
2022-10-18T19:12:43.977Z,12.31
2022-10-18T19:14:47.229Z,12.29
2022-10-18T19:17:01.985Z,12.30
2022-10-18T19:19:19.980Z,12.31
2022-10-18T19:21:23.992Z,12.31
2022-10-18T19:25:30.743Z,12.29
2022-10-18T19:27:35.909Z,12.29
2022-10-18T19:29:43.076Z,12.29
2022-10-18T19:31:46.432Z,12.23
2022-10-18T19:33:59.338Z,12.19
2022-10-18T19:36:02.634Z,12.19
2022-10-18T19:38:07.649Z,12.19
2022-10-18T19:40:18.210Z,12.18
2022-10-18T19:42:26.097Z,12.18
2022-10-18T19:44:32.917Z,12.18
2022-10-18T19:46:41.114Z,12.18
2022-10-18T19:48:43.580Z,12.18
2022-10-18T19:50:48.277Z,12.19
2022-10-18T19:52:50.583Z,12.18
2022-10-18T19:54:56.579Z,12.18
2022-10-18T19:56:58.745Z,12.15
2022-10-18T19:59:00.844Z,12.14
2022-10-18T20:01:04.824Z,12.17
2022-10-18T20:03:07.958Z,12.14
2022-10-18T20:05:10.654Z,12.13
2022-10-18T20:07:13.737Z,12.12
2022-10-18T20:09:19.523Z,12.10
2022-10-18T20:11:25.356Z,12.09
2022-10-18T20:13:27.479Z,12.08
2022-10-18T20:15:29.809Z,12.08
2022-10-18T20:17:32.754Z,12.09
2022-10-18T20:19:35.420Z,12.06
2022-10-18T20:21:37.951Z,12.04
2022-10-18T20:23:42.330Z,12.02
2022-10-18T20:25:56.017Z,12.03
2022-10-18T20:27:57.958Z,12.02
2022-10-18T20:29:59.897Z,12.01
2022-10-18T20:32:01.979Z,12.00
2022-10-18T20:34:06.847Z,12.02
2022-10-18T20:36:10.286Z,12.02
2022-10-18T20:38:12.833Z,12.03
2022-10-18T20:40:16.335Z,12.04
2022-10-18T20:42:18.304Z,12.06
2022-10-18T20:44:22.632Z,12.06
2022-10-18T20:46:25.337Z,12.09
2022-10-18T20:48:28.671Z,12.10
2022-10-18T20:50:30.537Z,12.11
2022-10-18T20:52:32.408Z,12.11
2022-10-18T20:54:37.384Z,12.12
2022-10-18T20:56:39.580Z,12.14
2022-10-18T20:58:43.807Z,12.12
2022-10-18T21:00:45.718Z,12.09
2022-10-18T21:02:47.651Z,12.03
2022-10-18T21:04:49.632Z,12.06
2022-10-18T21:06:54.373Z,12.06
2022-10-18T21:09:06.847Z,12.04
2022-10-18T21:11:09.686Z,12.08
2022-10-18T21:13:12.616Z,12.06
2022-10-18T21:15:15.091Z,12.04
2022-10-18T21:17:19.547Z,12.05
2022-10-18T21:19:24.346Z,12.08
2022-10-18T21:21:27.408Z,12.10
2022-10-18T21:23:31.423Z,12.11
2022-10-18T21:25:33.333Z,12.13
2022-10-18T21:27:35.410Z,12.15
2022-10-18T21:29:37.312Z,12.16
2022-10-18T21:31:41.656Z,12.15
2022-10-18T21:33:45.077Z,12.18
2022-10-18T21:35:46.958Z,12.16
2022-10-18T21:37:49.986Z,12.15
2022-10-18T21:39:52.026Z,12.09
2022-10-18T21:41:53.952Z,12.02
2022-10-18T21:43:55.857Z,12.07
2022-10-18T21:45:59.872Z,12.10
2022-10-18T21:48:03.643Z,12.11
2022-10-18T21:50:05.844Z,12.14
2022-10-18T21:52:07.717Z,12.13
2022-10-18T21:54:14.177Z,12.13
2022-10-18T21:56:19.386Z,12.10
2022-10-18T21:58:21.299Z,12.11
2022-10-18T22:00:23.234Z,12.13
2022-10-18T22:02:25.344Z,12.18
2022-10-18T22:04:28.570Z,12.17
2022-10-18T22:08:38.224Z,12.20
2022-10-18T22:10:40.867Z,12.20
2022-10-18T22:12:42.782Z,12.21
2022-10-18T22:14:44.814Z,12.26
2022-10-18T22:16:49.206Z,12.27
2022-10-18T22:18:56.975Z,12.28
2022-10-18T22:21:07.702Z,12.30
2022-10-18T22:23:12.678Z,12.30
2022-10-18T22:25:14.569Z,12.27
2022-10-18T22:27:16.369Z,12.25
2022-10-18T22:29:20.641Z,12.26
2022-10-18T22:31:25.237Z,12.27
2022-10-18T22:33:28.310Z,12.27
2022-10-18T22:35:31.968Z,12.24
2022-10-18T22:37:33.980Z,12.24
2022-10-18T22:39:36.136Z,12.16
2022-10-18T22:41:37.986Z,12.10
2022-10-18T22:43:40.913Z,12.09
2022-10-18T22:45:42.748Z,12.06
2022-10-18T22:47:44.679Z,12.05
2022-10-18T22:49:46.505Z,12.09
2022-10-18T22:51:48.466Z,12.09
2022-10-18T22:53:50.482Z,12.07
2022-10-18T22:55:52.855Z,12.07
2022-10-18T22:57:56.014Z,12.06
2022-10-18T22:59:57.810Z,12.06
2022-10-18T23:02:00.789Z,12.02
2022-10-18T23:04:04.170Z,12.01
2022-10-18T23:06:19.252Z,11.90
2022-10-18T23:08:21.094Z,11.82
2022-10-18T23:10:22.984Z,11.87
2022-10-18T23:12:24.864Z,11.78
2022-10-18T23:14:26.809Z,11.74
2022-10-18T23:16:29.704Z,11.72
2022-10-18T23:18:33.249Z,11.74
2022-10-18T23:20:35.198Z,11.75
2022-10-18T23:22:37.154Z,11.76
2022-10-18T23:24:39.996Z,11.72
2022-10-18T23:26:41.821Z,11.74
2022-10-18T23:28:45.591Z,11.70
2022-10-18T23:30:47.569Z,11.62
2022-10-18T23:32:49.521Z,11.57
2022-10-18T23:34:52.404Z,11.57
2022-10-18T23:36:54.303Z,11.58
2022-10-18T23:38:56.224Z,11.59
2022-10-18T23:40:58.303Z,11.59
2022-10-18T23:43:00.134Z,11.55
2022-10-18T23:45:03.609Z,11.51
2022-10-18T23:47:05.527Z,11.52
2022-10-18T23:49:09.318Z,11.49
2022-10-18T23:51:11.748Z,11.41
2022-10-18T23:53:13.840Z,11.34
2022-10-18T23:55:15.771Z,11.31
2022-10-18T23:57:17.633Z,11.23
2022-10-18T23:59:19.467Z,11.13
